ANA1915 RJGG-RJTT
Flight info
| Callsign | ANA1915 |
|---|---|
| Flight time | 0h 37m |
| Altitude | 27000 |
| Route | CHITA3 BOGON Y23 ARTIC Y71 XAC XACV |
| Aircraft | B738/M-SDE2E3FGHIRWXY/LB1 |
Departure
| Time | 2026-05-03 20:26 |
|---|---|
| Airport | Chubu Centrair International Airport (RJGG) |
Arrival
| Time | 2026-05-03 21:04 |
|---|---|
| Airport | Tokyo Haneda International Airport (RJTT) |
| Time | Latitude | Longitude | Altitude | Speed | Heading |
|---|---|---|---|---|---|
| 2026-05-03 20:15 | 34.85020 | 136.81523 | 27 ft | 0 kts | 79° |
| 2026-05-03 20:19 | 34.85017 | 136.81507 | 27 ft | 2 kts | 79° |
| 2026-05-03 20:19 | 34.85014 | 136.81487 | 27 ft | 2 kts | 79° |
| 2026-05-03 20:19 | 34.85011 | 136.81468 | 27 ft | 2 kts | 79° |
| 2026-05-03 20:20 | 34.85008 | 136.81448 | 27 ft | 2 kts | 80° |
| 2026-05-03 20:20 | 34.85008 | 136.81428 | 27 ft | 2 kts | 137° |
| 2026-05-03 20:20 | 34.85021 | 136.81420 | 27 ft | 1 kts | 167° |
| 2026-05-03 20:20 | 34.85025 | 136.81419 | 27 ft | 0 kts | 168° |
| 2026-05-03 20:21 | 34.85006 | 136.81424 | 27 ft | 6 kts | 169° |
| 2026-05-03 20:21 | 34.84943 | 136.81438 | 27 ft | 11 kts | 170° |
| 2026-05-03 20:22 | 34.84875 | 136.81454 | 27 ft | 6 kts | 179° |
| 2026-05-03 20:22 | 34.84850 | 136.81418 | 27 ft | 6 kts | 252° |
| 2026-05-03 20:22 | 34.84843 | 136.81369 | 27 ft | 6 kts | 260° |
| 2026-05-03 20:22 | 34.84835 | 136.81320 | 27 ft | 6 kts | 259° |
| 2026-05-03 20:23 | 34.84826 | 136.81262 | 27 ft | 8 kts | 258° |
| 2026-05-03 20:23 | 34.84814 | 136.81186 | 27 ft | 10 kts | 259° |
| 2026-05-03 20:23 | 34.84766 | 136.81152 | 27 ft | 10 kts | 172° |
| 2026-05-03 20:23 | 34.84689 | 136.81170 | 27 ft | 13 kts | 169° |
| 2026-05-03 20:24 | 34.84595 | 136.81193 | 27 ft | 13 kts | 168° |
| 2026-05-03 20:24 | 34.84496 | 136.81217 | 27 ft | 16 kts | 168° |
| 2026-05-03 20:24 | 34.84400 | 136.81236 | 27 ft | 11 kts | 182° |
| 2026-05-03 20:24 | 34.84353 | 136.81188 | 27 ft | 10 kts | 249° |
| 2026-05-03 20:25 | 34.84339 | 136.81108 | 28 ft | 10 kts | 259° |
| 2026-05-03 20:25 | 34.84327 | 136.81027 | 30 ft | 10 kts | 259° |
| 2026-05-03 20:25 | 34.84314 | 136.80938 | 23 ft | 7 kts | 268° |
| 2026-05-03 20:25 | 34.84335 | 136.80893 | 25 ft | 6 kts | 336° |
| 2026-05-03 20:26 | 34.84389 | 136.80880 | 25 ft | 23 kts | 349° |
| 2026-05-03 20:26 | 34.84876 | 136.80762 | 28 ft | 117 kts | 349° |
| 2026-05-03 20:26 | 34.85936 | 136.80524 | 175 ft | 181 kts | 340° |
| 2026-05-03 20:26 | 34.87080 | 136.79835 | 1101 ft | 184 kts | 314° |
| 2026-05-03 20:27 | 34.87698 | 136.78629 | 2445 ft | 163 kts | 279° |
| 2026-05-03 20:27 | 34.87555 | 136.77285 | 3356 ft | 172 kts | 250° |
| 2026-05-03 20:27 | 34.86769 | 136.76019 | 3726 ft | 208 kts | 227° |
| 2026-05-03 20:27 | 34.85718 | 136.74638 | 4168 ft | 230 kts | 235° |
| 2026-05-03 20:28 | 34.84680 | 136.73114 | 5061 ft | 236 kts | 231° |
| 2026-05-03 20:28 | 34.83395 | 136.71843 | 6038 ft | 245 kts | 206° |
| 2026-05-03 20:28 | 34.81682 | 136.71502 | 7018 ft | 255 kts | 186° |
| 2026-05-03 20:28 | 34.79905 | 136.71770 | 7905 ft | 265 kts | 178° |
| 2026-05-03 20:29 | 34.78076 | 136.72238 | 8830 ft | 273 kts | 173° |
| 2026-05-03 20:29 | 34.76343 | 136.73377 | 9654 ft | 299 kts | 148° |
| 2026-05-03 20:29 | 34.74974 | 136.75453 | 10192 ft | 333 kts | 130° |
| 2026-05-03 20:29 | 34.73776 | 136.78024 | 10435 ft | 361 kts | 126° |
| 2026-05-03 20:30 | 34.72601 | 136.80749 | 11027 ft | 372 kts | 126° |
| 2026-05-03 20:30 | 34.71389 | 136.83543 | 11815 ft | 375 kts | 127° |
| 2026-05-03 20:30 | 34.70136 | 136.86344 | 12627 ft | 378 kts | 128° |
| 2026-05-03 20:30 | 34.68850 | 136.89157 | 13413 ft | 383 kts | 129° |
| 2026-05-03 20:31 | 34.67657 | 136.92061 | 14059 ft | 399 kts | 117° |
| 2026-05-03 20:31 | 34.67101 | 136.95443 | 14738 ft | 413 kts | 104° |
| 2026-05-03 20:31 | 34.66734 | 136.98934 | 15421 ft | 418 kts | 103° |
| 2026-05-03 20:31 | 34.66376 | 137.02465 | 16076 ft | 423 kts | 104° |
| 2026-05-03 20:32 | 34.66002 | 137.06040 | 16745 ft | 428 kts | 104° |
| 2026-05-03 20:32 | 34.65606 | 137.09644 | 17406 ft | 432 kts | 104° |
| 2026-05-03 20:32 | 34.65193 | 137.13278 | 18044 ft | 437 kts | 105° |
| 2026-05-03 20:32 | 34.64766 | 137.16948 | 18592 ft | 441 kts | 105° |
| 2026-05-03 20:33 | 34.64331 | 137.20658 | 19153 ft | 446 kts | 105° |
| 2026-05-03 20:33 | 34.63890 | 137.24403 | 19684 ft | 450 kts | 105° |
| 2026-05-03 20:33 | 34.63450 | 137.28146 | 20272 ft | 453 kts | 105° |
| 2026-05-03 20:33 | 34.63001 | 137.31953 | 20840 ft | 456 kts | 105° |
| 2026-05-03 20:34 | 34.62544 | 137.35784 | 21372 ft | 460 kts | 106° |
| 2026-05-03 20:34 | 34.61733 | 137.39494 | 21845 ft | 450 kts | 121° |
| 2026-05-03 20:34 | 34.60465 | 137.42961 | 22431 ft | 448 kts | 124° |
| 2026-05-03 20:34 | 34.59133 | 137.46397 | 22946 ft | 452 kts | 124° |
| 2026-05-03 20:35 | 34.57821 | 137.49839 | 23389 ft | 457 kts | 123° |
| 2026-05-03 20:35 | 34.56516 | 137.53397 | 23801 ft | 461 kts | 123° |
| 2026-05-03 20:35 | 34.55230 | 137.56975 | 24210 ft | 463 kts | 122° |
| 2026-05-03 20:35 | 34.54256 | 137.60713 | 24636 ft | 482 kts | 105° |
| 2026-05-03 20:36 | 34.54114 | 137.64831 | 25075 ft | 492 kts | 95° |
| 2026-05-03 20:36 | 34.54173 | 137.69018 | 25479 ft | 496 kts | 94° |
| 2026-05-03 20:36 | 34.54243 | 137.73233 | 25828 ft | 500 kts | 94° |
| 2026-05-03 20:36 | 34.54294 | 137.77417 | 26245 ft | 502 kts | 95° |
| 2026-05-03 20:37 | 34.54321 | 137.81654 | 26783 ft | 500 kts | 95° |
| 2026-05-03 20:37 | 34.54328 | 137.85864 | 27375 ft | 497 kts | 96° |
| 2026-05-03 20:37 | 34.54324 | 137.90065 | 27904 ft | 496 kts | 96° |
| 2026-05-03 20:37 | 34.54315 | 137.94213 | 28363 ft | 497 kts | 96° |
| 2026-05-03 20:38 | 34.54307 | 137.98413 | 28798 ft | 498 kts | 96° |
| 2026-05-03 20:38 | 34.54302 | 138.02603 | 29461 ft | 494 kts | 96° |
| 2026-05-03 20:38 | 34.54296 | 138.06760 | 30008 ft | 492 kts | 96° |
| 2026-05-03 20:38 | 34.54289 | 138.10903 | 30503 ft | 489 kts | 96° |
| 2026-05-03 20:39 | 34.54280 | 138.15017 | 31029 ft | 486 kts | 97° |
| 2026-05-03 20:39 | 34.54273 | 138.17750 | 31151 ft | 490 kts | 97° |
| 2026-05-03 20:39 | 34.54254 | 138.23263 | 31009 ft | 491 kts | 97° |
| 2026-05-03 20:40 | 34.54237 | 138.30078 | 30978 ft | 481 kts | 97° |
| 2026-05-03 20:40 | 34.54259 | 138.34153 | 30731 ft | 489 kts | 92° |
| 2026-05-03 20:40 | 34.54726 | 138.38303 | 30221 ft | 500 kts | 81° |
| 2026-05-03 20:40 | 34.55717 | 138.42367 | 29674 ft | 504 kts | 70° |
| 2026-05-03 20:41 | 34.57207 | 138.46236 | 29045 ft | 505 kts | 64° |
| 2026-05-03 20:41 | 34.58837 | 138.50031 | 28426 ft | 506 kts | 63° |
| 2026-05-03 20:41 | 34.60465 | 138.53763 | 27819 ft | 507 kts | 63° |
| 2026-05-03 20:41 | 34.62099 | 138.57560 | 27228 ft | 507 kts | 63° |
| 2026-05-03 20:42 | 34.63708 | 138.61373 | 26646 ft | 506 kts | 64° |
| 2026-05-03 20:42 | 34.65295 | 138.65195 | 26069 ft | 506 kts | 64° |
| 2026-05-03 20:42 | 34.66869 | 138.69016 | 25497 ft | 506 kts | 64° |
| 2026-05-03 20:42 | 34.68427 | 138.72797 | 24960 ft | 505 kts | 64° |
| 2026-05-03 20:43 | 34.69941 | 138.76655 | 24399 ft | 504 kts | 70° |
| 2026-05-03 20:43 | 34.71012 | 138.80706 | 23777 ft | 501 kts | 80° |
| 2026-05-03 20:43 | 34.71607 | 138.84862 | 23163 ft | 496 kts | 89° |
| 2026-05-03 20:43 | 34.71694 | 138.89010 | 22401 ft | 489 kts | 97° |
| 2026-05-03 20:44 | 34.71588 | 138.93153 | 21685 ft | 487 kts | 97° |
| 2026-05-03 20:44 | 34.71514 | 138.97214 | 21016 ft | 486 kts | 96° |
| 2026-05-03 20:44 | 34.71485 | 139.01335 | 20337 ft | 485 kts | 96° |
| 2026-05-03 20:44 | 34.71463 | 139.05441 | 19683 ft | 484 kts | 96° |
| 2026-05-03 20:45 | 34.71440 | 139.09527 | 19026 ft | 482 kts | 95° |
| 2026-05-03 20:45 | 34.71416 | 139.13557 | 18401 ft | 481 kts | 95° |
| 2026-05-03 20:45 | 34.71390 | 139.17627 | 17751 ft | 479 kts | 95° |
| 2026-05-03 20:45 | 34.71361 | 139.21675 | 17039 ft | 477 kts | 95° |
| 2026-05-03 20:46 | 34.71331 | 139.25713 | 16352 ft | 475 kts | 95° |
| 2026-05-03 20:46 | 34.71301 | 139.29667 | 15670 ft | 473 kts | 95° |
| 2026-05-03 20:46 | 34.71268 | 139.33666 | 14971 ft | 470 kts | 95° |
| 2026-05-03 20:46 | 34.71281 | 139.37635 | 14322 ft | 469 kts | 90° |
| 2026-05-03 20:47 | 34.71827 | 139.41564 | 13837 ft | 469 kts | 77° |
| 2026-05-03 20:47 | 34.72938 | 139.45217 | 13359 ft | 462 kts | 64° |
| 2026-05-03 20:47 | 34.74490 | 139.48603 | 12904 ft | 454 kts | 58° |
| 2026-05-03 20:47 | 34.76134 | 139.51868 | 12420 ft | 448 kts | 57° |
| 2026-05-03 20:48 | 34.77776 | 139.55069 | 11945 ft | 442 kts | 58° |
| 2026-05-03 20:48 | 34.79388 | 139.58245 | 11484 ft | 437 kts | 58° |
| 2026-05-03 20:48 | 34.80940 | 139.61354 | 11014 ft | 432 kts | 59° |
| 2026-05-03 20:48 | 34.82476 | 139.64475 | 10577 ft | 428 kts | 59° |
| 2026-05-03 20:49 | 34.83988 | 139.67575 | 10213 ft | 421 kts | 59° |
| 2026-05-03 20:49 | 34.85473 | 139.70633 | 9793 ft | 417 kts | 59° |
| 2026-05-03 20:49 | 34.86945 | 139.73667 | 9314 ft | 414 kts | 59° |
| 2026-05-03 20:49 | 34.88407 | 139.76682 | 8811 ft | 412 kts | 59° |
| 2026-05-03 20:50 | 34.89859 | 139.79674 | 8322 ft | 410 kts | 59° |
| 2026-05-03 20:50 | 34.91290 | 139.82625 | 7847 ft | 407 kts | 59° |
| 2026-05-03 20:50 | 34.93023 | 139.85322 | 7320 ft | 403 kts | 37° |
| 2026-05-03 20:50 | 34.95375 | 139.87062 | 6861 ft | 388 kts | 14° |
| 2026-05-03 20:51 | 34.97939 | 139.87820 | 6401 ft | 370 kts | 357° |
| 2026-05-03 20:51 | 35.00419 | 139.87776 | 5927 ft | 352 kts | 340° |
| 2026-05-03 20:51 | 35.02766 | 139.87121 | 5450 ft | 343 kts | 334° |
| 2026-05-03 20:51 | 35.05057 | 139.86373 | 5056 ft | 337 kts | 333° |
| 2026-05-03 20:52 | 35.07293 | 139.85636 | 4866 ft | 326 kts | 334° |
| 2026-05-03 20:52 | 35.09453 | 139.84950 | 4658 ft | 316 kts | 331° |
| 2026-05-03 20:52 | 35.11563 | 139.84233 | 4426 ft | 312 kts | 332° |
| 2026-05-03 20:52 | 35.13620 | 139.83570 | 4197 ft | 307 kts | 332° |
| 2026-05-03 20:53 | 35.15658 | 139.82919 | 4111 ft | 297 kts | 332° |
| 2026-05-03 20:53 | 35.17630 | 139.82295 | 4061 ft | 286 kts | 331° |
| 2026-05-03 20:53 | 35.19529 | 139.81701 | 4057 ft | 280 kts | 332° |
| 2026-05-03 20:53 | 35.21403 | 139.81108 | 4065 ft | 276 kts | 331° |
| 2026-05-03 20:54 | 35.23234 | 139.80519 | 4079 ft | 275 kts | 331° |
| 2026-05-03 20:54 | 35.26957 | 139.79326 | 4066 ft | 276 kts | 331° |
| 2026-05-03 20:54 | 35.28821 | 139.78736 | 4110 ft | 277 kts | 331° |
| 2026-05-03 20:55 | 35.30748 | 139.78262 | 4045 ft | 298 kts | 348° |
| 2026-05-03 20:55 | 35.32819 | 139.78907 | 4005 ft | 325 kts | 22° |
| 2026-05-03 20:55 | 35.34684 | 139.80548 | 3892 ft | 332 kts | 36° |
| 2026-05-03 20:55 | 35.36402 | 139.82397 | 3720 ft | 329 kts | 38° |
| 2026-05-03 20:56 | 35.38119 | 139.84212 | 3600 ft | 322 kts | 35° |
| 2026-05-03 20:56 | 35.39838 | 139.85954 | 3499 ft | 318 kts | 35° |
| 2026-05-03 20:56 | 35.41538 | 139.87652 | 3394 ft | 311 kts | 35° |
| 2026-05-03 20:56 | 35.43182 | 139.89283 | 3291 ft | 304 kts | 34° |
| 2026-05-03 20:57 | 35.44771 | 139.90978 | 3189 ft | 302 kts | 41° |
| 2026-05-03 20:57 | 35.46263 | 139.92805 | 3101 ft | 304 kts | 43° |
| 2026-05-03 20:57 | 35.47747 | 139.94668 | 3015 ft | 305 kts | 43° |
| 2026-05-03 20:57 | 35.49241 | 139.96526 | 2907 ft | 305 kts | 43° |
| 2026-05-03 20:58 | 35.50736 | 139.98366 | 2811 ft | 303 kts | 43° |
| 2026-05-03 20:58 | 35.52225 | 140.00190 | 2684 ft | 303 kts | 43° |
| 2026-05-03 20:58 | 35.53715 | 140.01978 | 2585 ft | 304 kts | 37° |
| 2026-05-03 20:58 | 35.55535 | 140.03168 | 2459 ft | 288 kts | 2° |
| 2026-05-03 20:59 | 35.57450 | 140.03348 | 2396 ft | 265 kts | 336° |
| 2026-05-03 20:59 | 35.59035 | 140.02578 | 2344 ft | 234 kts | 310° |
| 2026-05-03 20:59 | 35.60234 | 140.01325 | 2267 ft | 224 kts | 299° |
| 2026-05-03 20:59 | 35.61331 | 139.99946 | 2175 ft | 225 kts | 298° |
| 2026-05-03 21:00 | 35.62320 | 139.98542 | 2059 ft | 206 kts | 282° |
| 2026-05-03 21:00 | 35.62606 | 139.97493 | 2012 ft | 181 kts | 264° |
| 2026-05-03 21:00 | 35.62565 | 139.95580 | 1917 ft | 163 kts | 246° |
| 2026-05-03 21:00 | 35.62250 | 139.94219 | 1863 ft | 167 kts | 247° |
| 2026-05-03 21:01 | 35.61944 | 139.92837 | 1814 ft | 171 kts | 247° |
| 2026-05-03 21:01 | 35.61546 | 139.91481 | 1727 ft | 164 kts | 231° |
| 2026-05-03 21:01 | 35.60781 | 139.90436 | 1627 ft | 167 kts | 227° |
| 2026-05-03 21:01 | 35.60055 | 139.89338 | 1563 ft | 165 kts | 223° |
| 2026-05-03 21:02 | 35.59232 | 139.88367 | 1546 ft | 163 kts | 221° |
| 2026-05-03 21:02 | 35.58389 | 139.87375 | 1338 ft | 170 kts | 223° |
| 2026-05-03 21:02 | 35.57531 | 139.86353 | 1089 ft | 171 kts | 221° |
| 2026-05-03 21:02 | 35.56704 | 139.85311 | 798 ft | 167 kts | 227° |
| 2026-05-03 21:03 | 35.55993 | 139.84242 | 631 ft | 149 kts | 214° |
| 2026-05-03 21:03 | 35.55219 | 139.83509 | 419 ft | 136 kts | 220° |
| 2026-05-03 21:03 | 35.54558 | 139.82741 | 236 ft | 126 kts | 219° |
| 2026-05-03 21:03 | 35.53925 | 139.82049 | 86 ft | 114 kts | 218° |
| 2026-05-03 21:04 | 35.53410 | 139.81469 | 45 ft | 86 kts | 216° |
| 2026-05-03 21:04 | 35.53033 | 139.81057 | 24 ft | 62 kts | 219° |
| 2026-05-03 21:04 | 35.52754 | 139.80741 | 25 ft | 47 kts | 221° |